createdAt,value
2022-09-25T00:01:28.250Z,100699.91
2022-09-25T00:03:54.798Z,100701.13
2022-09-25T00:06:23.730Z,100696.09
2022-09-25T00:08:50.776Z,100694.78
2022-09-25T00:11:22.476Z,100702.22
2022-09-25T00:13:49.720Z,100694.50
2022-09-25T00:16:28.806Z,100705.53
2022-09-25T00:19:15.612Z,100704.03
2022-09-25T00:21:42.466Z,100707.97
2022-09-25T00:24:10.680Z,100716.25
2022-09-25T00:26:41.604Z,100711.06
2022-09-25T00:29:12.711Z,100706.00
2022-09-25T00:31:39.084Z,100705.38
2022-09-25T00:34:05.925Z,100706.59
2022-09-25T00:36:33.424Z,100708.63
2022-09-25T00:39:00.179Z,100701.91
2022-09-25T00:41:28.418Z,100708.53
2022-09-25T00:43:57.475Z,100711.63
2022-09-25T00:46:36.491Z,100713.88
2022-09-25T00:49:12.735Z,100719.44
2022-09-25T00:51:46.345Z,100717.97
2022-09-25T00:54:31.459Z,100708.56
2022-09-25T00:57:03.313Z,100716.00
2022-09-25T00:59:33.376Z,100711.16
2022-09-25T01:02:00.066Z,100714.06
2022-09-25T01:04:30.912Z,100714.41
2022-09-25T01:06:58.181Z,100714.81
2022-09-25T01:09:24.596Z,100712.31
2022-09-25T01:11:51.338Z,100721.41
2022-09-25T01:14:17.859Z,100720.56
2022-09-25T01:16:57.696Z,100725.97
2022-09-25T01:19:52.800Z,100714.72
2022-09-25T01:22:42.241Z,100722.63
2022-09-25T01:25:35.975Z,100720.97
2022-09-25T01:28:20.138Z,100713.03
2022-09-25T01:30:52.932Z,100711.34
2022-09-25T01:33:34.169Z,100713.41
2022-09-25T01:36:11.693Z,100713.59
2022-09-25T01:38:52.025Z,100716.47
2022-09-25T01:41:35.575Z,100713.94
2022-09-25T01:44:13.527Z,100718.72
2022-09-25T01:46:47.586Z,100713.31
2022-09-25T01:49:22.467Z,100717.41
2022-09-25T01:51:52.222Z,100715.06
2022-09-25T01:54:28.034Z,100708.19
2022-09-25T01:56:59.827Z,100713.75
2022-09-25T01:59:45.188Z,100715.16
2022-09-25T02:02:19.143Z,100709.75
2022-09-25T02:05:02.172Z,100708.94
2022-09-25T02:07:36.182Z,100711.63
2022-09-25T02:10:12.911Z,100713.47
2022-09-25T02:12:46.414Z,100701.00
2022-09-25T02:15:29.566Z,100702.88
2022-09-25T02:18:28.476Z,100707.44
2022-09-25T02:21:02.644Z,100712.16
2022-09-25T02:23:44.955Z,100714.22
2022-09-25T02:26:17.975Z,100715.25
2022-09-25T02:28:44.330Z,100713.75
2022-09-25T02:31:14.388Z,100721.00
2022-09-25T02:33:40.945Z,100721.34
2022-09-25T02:36:07.647Z,100713.63
2022-09-25T02:38:35.603Z,100718.34
2022-09-25T02:41:30.033Z,100708.56
2022-09-25T02:44:00.954Z,100708.09
2022-09-25T02:46:45.537Z,100712.63
2022-09-25T02:49:53.245Z,100717.78
2022-09-25T02:52:27.868Z,100717.47
2022-09-25T02:55:10.853Z,100717.81
2022-09-25T02:57:58.374Z,100709.44
2022-09-25T03:00:25.101Z,100709.31
2022-09-25T03:02:56.313Z,100710.88
2022-09-25T03:05:25.048Z,100715.97
2022-09-25T03:08:12.087Z,100706.09
2022-09-25T03:10:38.479Z,100699.72
2022-09-25T03:13:23.002Z,100706.69
2022-09-25T03:15:59.459Z,100704.72
2022-09-25T03:18:26.802Z,100713.50
2022-09-25T03:20:53.221Z,100703.63
2022-09-25T03:23:19.674Z,100705.16
2022-09-25T03:25:49.956Z,100700.47
2022-09-25T03:28:16.820Z,100706.38
2022-09-25T03:30:43.301Z,100710.47
2022-09-25T03:33:11.878Z,100706.63
2022-09-25T03:35:39.619Z,100692.84
2022-09-25T03:38:10.465Z,100699.78
2022-09-25T03:40:36.892Z,100689.31
2022-09-25T03:45:31.400Z,100696.94
2022-09-25T03:47:57.718Z,100703.66
2022-09-25T03:50:24.098Z,100696.97
2022-09-25T03:52:50.432Z,100699.34
2022-09-25T03:55:17.253Z,100697.00
2022-09-25T03:57:43.597Z,100695.66
2022-09-25T04:00:10.530Z,100695.34
2022-09-25T04:02:36.954Z,100703.75
2022-09-25T04:05:04.103Z,100701.56
2022-09-25T04:07:30.491Z,100705.63
2022-09-25T04:09:56.814Z,100702.78
2022-09-25T04:12:23.153Z,100697.75
2022-09-25T04:14:49.478Z,100697.41
2022-09-25T04:17:15.848Z,100697.75
2022-09-25T04:19:42.180Z,100701.16
2022-09-25T04:22:08.568Z,100697.78
2022-09-25T04:24:50.055Z,100701.81
2022-09-25T04:27:22.088Z,100703.16
2022-09-25T04:29:49.547Z,100690.22
2022-09-25T04:32:35.728Z,100696.94
2022-09-25T04:35:02.813Z,100697.47
2022-09-25T04:37:29.246Z,100694.25
2022-09-25T04:39:56.863Z,100701.00
2022-09-25T04:42:26.686Z,100695.97
2022-09-25T04:44:54.535Z,100706.19
2022-09-25T04:47:26.875Z,100703.84
2022-09-25T04:49:53.194Z,100711.56
2022-09-25T04:52:20.004Z,100707.56
2022-09-25T04:54:47.563Z,100712.41
2022-09-25T04:57:38.754Z,100719.97
2022-09-25T05:00:07.006Z,100708.88
2022-09-25T05:02:33.462Z,100707.69
2022-09-25T05:04:59.920Z,100713.53
2022-09-25T05:07:26.345Z,100715.88
2022-09-25T05:09:52.670Z,100705.59
2022-09-25T05:12:19.970Z,100706.13
2022-09-25T05:14:46.743Z,100714.47
2022-09-25T05:17:13.199Z,100708.59
2022-09-25T05:19:40.230Z,100716.16
2022-09-25T05:22:06.620Z,100714.81
2022-09-25T05:24:33.059Z,100713.28
2022-09-25T05:26:59.484Z,100708.38
2022-09-25T05:29:25.823Z,100714.09
2022-09-25T05:31:52.229Z,100702.84
2022-09-25T05:34:18.677Z,100710.22
2022-09-25T05:36:45.193Z,100703.50
2022-09-25T05:39:14.477Z,100714.41
2022-09-25T05:41:41.415Z,100703.97
2022-09-25T05:44:09.793Z,100703.28
2022-09-25T05:46:36.972Z,100712.38
2022-09-25T05:49:03.924Z,100710.84
2022-09-25T05:51:31.276Z,100707.47
2022-09-25T05:53:57.832Z,100711.31
2022-09-25T05:56:24.714Z,100701.59
2022-09-25T05:58:52.823Z,100704.28
2022-09-25T06:01:19.750Z,100703.59
2022-09-25T06:03:46.454Z,100702.56
2022-09-25T06:06:12.783Z,100702.56
2022-09-25T06:08:39.317Z,100707.94
2022-09-25T06:11:06.673Z,100703.25
2022-09-25T06:13:34.456Z,100706.78
2022-09-25T06:16:01.622Z,100711.00
2022-09-25T06:18:28.121Z,100701.91
2022-09-25T06:21:02.985Z,100707.84
2022-09-25T06:23:30.324Z,100712.03
2022-09-25T06:26:03.986Z,100707.84
2022-09-25T06:28:30.985Z,100704.84
2022-09-25T06:31:00.693Z,100706.72
2022-09-25T06:33:27.138Z,100723.34
2022-09-25T06:35:53.477Z,100710.25
2022-09-25T06:38:19.864Z,100715.00
2022-09-25T06:40:46.247Z,100709.78
2022-09-25T06:43:15.783Z,100719.91
2022-09-25T06:45:43.249Z,100706.78
2022-09-25T06:48:12.994Z,100713.22
2022-09-25T06:50:42.610Z,100709.84
2022-09-25T06:53:11.140Z,100719.97
2022-09-25T06:55:38.390Z,100710.41
2022-09-25T06:58:06.383Z,100715.94
2022-09-25T07:00:33.230Z,100719.63
2022-09-25T07:03:19.060Z,100728.72
2022-09-25T07:05:47.932Z,100724.38
2022-09-25T07:08:16.769Z,100717.47
2022-09-25T07:10:54.205Z,100727.19
2022-09-25T07:13:24.487Z,100724.84
2022-09-25T07:15:59.067Z,100723.84
2022-09-25T07:18:26.408Z,100723.97
2022-09-25T07:20:54.209Z,100723.13
2022-09-25T07:23:22.312Z,100730.34
2022-09-25T07:25:49.582Z,100733.84
2022-09-25T07:28:19.001Z,100734.03
2022-09-25T07:30:46.659Z,100723.38
2022-09-25T07:33:13.123Z,100728.78
2022-09-25T07:35:43.030Z,100727.03
2022-09-25T07:38:10.704Z,100726.22
2022-09-25T07:40:37.538Z,100734.25
2022-09-25T07:43:05.530Z,100725.28
2022-09-25T07:45:32.591Z,100729.66
2022-09-25T07:48:02.937Z,100726.06
2022-09-25T07:50:31.649Z,100729.41
2022-09-25T07:52:58.693Z,100726.44
2022-09-25T07:55:28.903Z,100725.41
2022-09-25T07:57:59.372Z,100724.31
2022-09-25T08:00:27.472Z,100723.41
2022-09-25T08:02:59.492Z,100723.84
2022-09-25T08:05:27.268Z,100726.28
2022-09-25T08:07:54.451Z,100716.06
2022-09-25T08:10:22.059Z,100712.09
2022-09-25T08:20:13.799Z,100723.19
2022-09-25T08:22:40.167Z,100718.53
2022-09-25T08:25:06.871Z,100730.28
2022-09-25T08:27:43.241Z,100723.75
2022-09-25T08:30:11.108Z,100719.06
2022-09-25T08:32:37.536Z,100724.59
2022-09-25T08:35:04.956Z,100722.59
2022-09-25T08:37:32.085Z,100718.31
2022-09-25T08:40:01.428Z,100728.38
2022-09-25T08:42:36.278Z,100724.91
2022-09-25T08:45:30.906Z,100724.13
2022-09-25T08:48:17.400Z,100722.78
2022-09-25T08:50:43.662Z,100723.31
2022-09-25T08:53:24.312Z,100721.69
2022-09-25T08:56:09.692Z,100718.44
2022-09-25T08:58:43.167Z,100715.59
2022-09-25T09:01:19.722Z,100718.81
2022-09-25T09:03:57.381Z,100720.34
2022-09-25T09:06:27.063Z,100726.28
2022-09-25T09:09:02.136Z,100723.03
2022-09-25T09:11:49.763Z,100716.91
2022-09-25T09:14:20.460Z,100718.25
2022-09-25T09:16:56.043Z,100722.09
2022-09-25T09:19:22.391Z,100717.19
2022-09-25T09:22:11.092Z,100715.63
2022-09-25T09:24:56.179Z,100716.06
2022-09-25T09:28:06.983Z,100717.38
2022-09-25T09:31:10.794Z,100717.00
2022-09-25T09:34:03.950Z,100726.44
2022-09-25T09:36:50.703Z,100712.09
2022-09-25T09:39:24.728Z,100717.38
2022-09-25T09:42:17.984Z,100710.16
2022-09-25T09:45:09.095Z,100712.06
2022-09-25T09:48:02.402Z,100716.69
2022-09-25T09:50:47.216Z,100708.97
2022-09-25T09:53:19.919Z,100716.47
2022-09-25T09:55:51.003Z,100708.34
2022-09-25T09:58:31.369Z,100719.00
2022-09-25T10:01:06.971Z,100706.47
2022-09-25T10:03:45.687Z,100709.81
2022-09-25T10:06:19.143Z,100698.50
2022-09-25T10:08:48.256Z,100698.13
2022-09-25T10:11:18.378Z,100696.03
2022-09-25T10:13:45.616Z,100691.44
2022-09-25T10:16:18.018Z,100689.13
2022-09-25T10:19:01.125Z,100690.56
2022-09-25T10:21:31.791Z,100693.53
2022-09-25T10:23:59.147Z,100692.25
2022-09-25T10:26:28.642Z,100698.50
2022-09-25T10:29:15.879Z,100685.72
2022-09-25T10:31:42.451Z,100686.34
2022-09-25T10:34:17.730Z,100685.91
2022-09-25T10:36:49.817Z,100690.53
2022-09-25T10:39:51.312Z,100685.91
2022-09-25T10:42:33.076Z,100682.56
2022-09-25T10:44:59.511Z,100668.75
2022-09-25T10:47:50.217Z,100673.13
2022-09-25T10:50:27.161Z,100677.13
2022-09-25T10:52:59.069Z,100678.38
2022-09-25T10:55:35.456Z,100675.47
2022-09-25T10:58:10.897Z,100679.69
2022-09-25T11:00:46.379Z,100680.50
2022-09-25T11:03:25.455Z,100677.41
2022-09-25T11:05:58.168Z,100673.84
2022-09-25T11:08:30.105Z,100681.38
2022-09-25T11:10:58.789Z,100684.69
2022-09-25T11:13:29.032Z,100682.56
2022-09-25T11:16:01.291Z,100677.94
2022-09-25T11:18:49.768Z,100677.06
2022-09-25T11:21:43.081Z,100674.78
2022-09-25T11:24:24.985Z,100670.16
2022-09-25T11:27:06.508Z,100673.09
2022-09-25T11:29:51.003Z,100672.25
2022-09-25T11:32:29.283Z,100670.81
2022-09-25T11:35:17.537Z,100668.72
2022-09-25T11:37:58.538Z,100665.81
2022-09-25T11:41:19.412Z,100669.19
2022-09-25T11:44:13.328Z,100660.00
2022-09-25T11:46:42.479Z,100658.53
2022-09-25T11:49:19.750Z,100652.88
2022-09-25T11:52:16.348Z,100647.84
2022-09-25T11:54:55.070Z,100645.13
2022-09-25T11:57:42.752Z,100645.50
2022-09-25T12:00:28.535Z,100650.50
2022-09-25T12:03:32.134Z,100639.94
2022-09-25T12:06:21.653Z,100642.66
2022-09-25T12:09:04.091Z,100633.84
2022-09-25T12:11:45.679Z,100631.94
2022-09-25T12:14:17.542Z,100631.72
2022-09-25T12:16:51.988Z,100627.13
2022-09-25T12:19:46.195Z,100617.69
2022-09-25T12:22:36.783Z,100616.41
2022-09-25T12:25:24.949Z,100610.31
2022-09-25T12:28:08.054Z,100609.22
2022-09-25T12:30:40.682Z,100607.31
2022-09-25T12:33:35.263Z,100600.53
2022-09-25T12:36:14.772Z,100592.28
2022-09-25T12:38:44.996Z,100587.75
2022-09-25T12:41:24.661Z,100583.84
2022-09-25T12:44:00.310Z,100588.31
2022-09-25T12:46:34.223Z,100588.44
2022-09-25T12:49:30.102Z,100572.16
2022-09-25T12:52:03.367Z,100578.38
2022-09-25T12:55:02.347Z,100574.97
2022-09-25T12:57:48.162Z,100570.72
2022-09-25T13:00:28.812Z,100576.56
2022-09-25T13:03:17.227Z,100569.22
2022-09-25T13:05:50.505Z,100561.25
2022-09-25T13:08:34.161Z,100568.00
2022-09-25T13:11:16.347Z,100562.41
2022-09-25T13:13:46.702Z,100565.81
2022-09-25T13:16:15.934Z,100559.59
2022-09-25T13:19:08.938Z,100563.81
2022-09-25T13:21:37.350Z,100557.81
2022-09-25T13:24:10.210Z,100549.34
2022-09-25T13:26:50.432Z,100558.25
2022-09-25T13:29:28.188Z,100551.06
2022-09-25T13:32:07.843Z,100553.69
2022-09-25T13:34:38.559Z,100538.91
2022-09-25T13:37:08.992Z,100537.06
2022-09-25T13:40:03.677Z,100534.78
2022-09-25T13:42:39.019Z,100531.25
2022-09-25T13:45:32.102Z,100526.63
2022-09-25T13:48:08.786Z,100527.25
2022-09-25T13:50:38.833Z,100524.91
2022-09-25T13:53:23.402Z,100525.50
2022-09-25T13:55:49.679Z,100524.69
2022-09-25T13:58:28.404Z,100521.50
2022-09-25T14:00:58.663Z,100520.44
2022-09-25T14:03:32.103Z,100525.69
2022-09-25T14:06:00.720Z,100525.69
2022-09-25T14:08:31.028Z,100518.34
2022-09-25T14:11:00.888Z,100516.22
2022-09-25T14:13:29.149Z,100520.41
2022-09-25T14:15:59.746Z,100517.22
2022-09-25T14:18:39.324Z,100514.28
2022-09-25T14:21:09.582Z,100516.75
2022-09-25T14:23:48.584Z,100520.31
2022-09-25T14:26:26.762Z,100509.88
2022-09-25T14:28:56.019Z,100519.56
2022-09-25T14:31:34.988Z,100512.06
2022-09-25T14:34:37.694Z,100506.66
2022-09-25T14:37:14.182Z,100507.34
2022-09-25T14:39:59.271Z,100505.09
2022-09-25T14:43:05.771Z,100513.47
2022-09-25T14:45:47.256Z,100501.75
2022-09-25T14:48:24.108Z,100510.53
2022-09-25T14:50:55.787Z,100504.03
2022-09-25T14:53:31.471Z,100505.47
2022-09-25T14:56:01.606Z,100503.78
2022-09-25T14:58:32.594Z,100505.47
2022-09-25T15:01:10.443Z,100498.34
2022-09-25T15:03:41.905Z,100493.97
2022-09-25T15:06:12.620Z,100499.66
2022-09-25T15:08:42.356Z,100496.06
2022-09-25T15:11:15.227Z,100491.22
2022-09-25T15:13:42.492Z,100488.75
2022-09-25T15:16:40.309Z,100496.69
2022-09-25T15:19:16.715Z,100478.69
2022-09-25T15:21:43.846Z,100493.34
2022-09-25T15:24:21.563Z,100482.44
2022-09-25T15:26:56.195Z,100479.16
2022-09-25T15:29:23.885Z,100474.97
2022-09-25T15:31:51.560Z,100478.97
2022-09-25T15:34:30.254Z,100479.19
2022-09-25T15:37:15.574Z,100477.75
2022-09-25T15:39:43.321Z,100484.69
2022-09-25T15:42:13.814Z,100475.94
2022-09-25T15:44:40.504Z,100486.63
2022-09-25T15:47:23.750Z,100482.03
2022-09-25T15:49:50.239Z,100481.66
2022-09-25T15:52:24.689Z,100479.59
2022-09-25T15:54:51.184Z,100477.78
2022-09-25T15:57:28.061Z,100471.94
2022-09-25T16:00:13.418Z,100481.59
2022-09-25T16:03:07.147Z,100478.03
2022-09-25T16:05:36.042Z,100472.81
2022-09-25T16:08:24.925Z,100470.78
2022-09-25T16:11:10.081Z,100470.59
2022-09-25T16:13:41.003Z,100474.41
2022-09-25T16:16:29.848Z,100488.88
2022-09-25T16:18:58.940Z,100479.31
2022-09-25T16:21:30.570Z,100481.69
2022-09-25T16:23:59.777Z,100484.84
2022-09-25T16:26:39.242Z,100477.34
2022-09-25T16:29:17.534Z,100488.91
2022-09-25T16:31:45.411Z,100493.34
2022-09-25T16:34:23.954Z,100478.75
2022-09-25T16:36:51.348Z,100487.56
2022-09-25T16:39:29.637Z,100488.84
2022-09-25T16:41:56.622Z,100485.94
2022-09-25T16:44:38.098Z,100489.69
2022-09-25T16:47:20.153Z,100486.19
2022-09-25T16:49:47.667Z,100490.09
2022-09-25T17:04:46.418Z,100490.50
2022-09-25T17:07:55.029Z,100480.28
2022-09-25T17:13:37.572Z,100488.22
2022-09-25T17:19:01.723Z,100496.59
2022-09-25T17:22:02.549Z,100491.38
2022-09-25T17:24:42.505Z,100487.38
2022-09-25T17:27:14.339Z,100495.75
2022-09-25T17:30:00.165Z,100491.75
2022-09-25T17:39:36.593Z,100475.28
2022-09-25T17:42:03.640Z,100472.13
2022-09-25T17:44:30.618Z,100466.31
2022-09-25T17:46:57.578Z,100464.84
2022-09-25T17:49:25.111Z,100466.09
2022-09-25T17:51:51.955Z,100462.75
2022-09-25T17:54:18.934Z,100468.38
2022-09-25T17:56:46.267Z,100474.81
2022-09-25T17:59:13.837Z,100475.06
2022-09-25T18:01:40.604Z,100470.88
2022-09-25T18:04:18.058Z,100461.91
2022-09-25T18:06:44.376Z,100466.69
2022-09-25T18:09:10.861Z,100467.94
2022-09-25T18:11:37.578Z,100469.81
2022-09-25T18:14:03.901Z,100461.06
2022-09-25T18:16:33.121Z,100456.69
2022-09-25T18:19:18.558Z,100467.09
2022-09-25T18:22:03.519Z,100458.31
2022-09-25T18:24:30.041Z,100462.50
2022-09-25T18:26:57.892Z,100453.09
2022-09-25T18:29:25.139Z,100459.16
2022-09-25T18:31:51.828Z,100462.19
2022-09-25T18:34:18.258Z,100458.25
2022-09-25T18:36:44.702Z,100454.25
2022-09-25T18:39:13.883Z,100457.38
2022-09-25T18:41:44.301Z,100463.41
2022-09-25T18:44:13.233Z,100460.47
2022-09-25T18:46:40.377Z,100460.22
2022-09-25T18:49:07.768Z,100455.63
2022-09-25T18:51:35.081Z,100449.34
2022-09-25T18:54:02.185Z,100446.63
2022-09-25T18:56:28.632Z,100447.44
2022-09-25T18:58:55.039Z,100444.69
2022-09-25T19:01:21.765Z,100450.91
2022-09-25T19:03:52.484Z,100448.97
2022-09-25T19:06:19.583Z,100449.13
2022-09-25T19:08:55.803Z,100441.84
2022-09-25T19:11:23.616Z,100443.66
2022-09-25T19:13:50.107Z,100444.44
2022-09-25T19:16:18.142Z,100439.84
2022-09-25T19:18:45.127Z,100440.56
2022-09-25T19:21:16.729Z,100438.44
2022-09-25T19:23:43.758Z,100443.81
2022-09-25T19:26:15.227Z,100442.75
2022-09-25T19:28:42.535Z,100448.09
2022-09-25T19:31:18.063Z,100450.53
2022-09-25T19:33:45.344Z,100456.56
2022-09-25T19:36:26.537Z,100445.47
2022-09-25T19:38:54.135Z,100437.13
2022-09-25T19:41:27.971Z,100431.47
2022-09-25T19:43:59.049Z,100436.59
2022-09-25T19:46:27.425Z,100431.13
2022-09-25T19:48:54.081Z,100429.22
2022-09-25T19:51:22.116Z,100422.91
2022-09-25T19:53:48.800Z,100421.97
2022-09-25T19:56:16.183Z,100410.28
2022-09-25T19:58:43.348Z,100418.31
2022-09-25T20:01:17.116Z,100417.22
2022-09-25T20:03:44.036Z,100411.09
2022-09-25T20:06:11.063Z,100408.28
2022-09-25T20:08:38.759Z,100414.28
2022-09-25T20:11:21.987Z,100413.16
2022-09-25T20:13:50.752Z,100414.75
2022-09-25T20:16:19.216Z,100410.94
2022-09-25T20:18:50.679Z,100412.38
2022-09-25T20:21:21.055Z,100410.41
2022-09-25T20:23:58.625Z,100407.25
2022-09-25T20:26:26.373Z,100400.75
2022-09-25T20:29:01.545Z,100391.34
2022-09-25T20:31:29.724Z,100401.84
2022-09-25T20:33:56.194Z,100397.22
2022-09-25T20:36:23.110Z,100388.84
2022-09-25T20:38:54.500Z,100386.72
2022-09-25T20:41:21.957Z,100387.47
2022-09-25T20:43:50.896Z,100383.44
2022-09-25T20:46:20.308Z,100379.63
2022-09-25T20:48:48.817Z,100385.41
2022-09-25T20:51:19.101Z,100387.00
2022-09-25T20:53:59.831Z,100386.53
2022-09-25T20:56:27.941Z,100392.47
2022-09-25T20:58:55.814Z,100390.31
2022-09-25T21:01:26.074Z,100385.47
2022-09-25T21:03:53.863Z,100389.56
2022-09-25T21:06:25.311Z,100378.50
2022-09-25T21:09:03.539Z,100380.53
2022-09-25T21:11:31.976Z,100378.34
2022-09-25T21:14:02.423Z,100384.09
2022-09-25T21:16:30.587Z,100369.50
2022-09-25T21:19:00.264Z,100373.41
2022-09-25T21:21:28.207Z,100380.16
2022-09-25T21:23:56.977Z,100377.84
2022-09-25T21:26:26.428Z,100374.69
2022-09-25T21:28:54.880Z,100382.94
2022-09-25T21:31:24.037Z,100373.34
2022-09-25T21:33:52.842Z,100377.25
2022-09-25T21:36:19.731Z,100365.84
2022-09-25T21:38:46.119Z,100369.53
2022-09-25T21:41:14.922Z,100355.41
2022-09-25T21:43:42.248Z,100344.00
2022-09-25T21:46:12.834Z,100349.56
2022-09-25T21:48:41.153Z,100346.22
2022-09-25T21:51:08.330Z,100343.72
2022-09-25T21:53:34.859Z,100346.56
2022-09-25T21:56:03.335Z,100351.13
2022-09-25T21:58:30.159Z,100344.91
2022-09-25T22:01:27.530Z,100346.56
2022-09-25T22:03:56.457Z,100349.47
2022-09-25T22:06:26.253Z,100354.00
2022-09-25T22:08:54.945Z,100343.22
2022-09-25T22:11:21.859Z,100341.09
2022-09-25T22:13:50.127Z,100328.63
2022-09-25T22:16:38.088Z,100332.53
2022-09-25T22:19:17.103Z,100331.69
2022-09-25T22:21:45.236Z,100337.44
2022-09-25T22:24:12.184Z,100340.50
2022-09-25T22:26:41.703Z,100343.19
2022-09-25T22:29:08.876Z,100330.94
2022-09-25T22:31:36.356Z,100323.69
2022-09-25T22:34:05.523Z,100320.81
2022-09-25T22:36:35.066Z,100311.06
2022-09-25T22:39:02.568Z,100310.22
2022-09-25T22:41:29.006Z,100322.66
2022-09-25T22:43:58.411Z,100321.81
2022-09-25T22:46:26.069Z,100319.13
2022-09-25T22:48:52.487Z,100316.63
2022-09-25T22:51:24.529Z,100317.47
2022-09-25T22:53:52.503Z,100306.03
2022-09-25T22:56:22.190Z,100304.38
2022-09-25T22:58:51.594Z,100308.91
2022-09-25T23:01:44.177Z,100318.00
2022-09-25T23:04:14.088Z,100311.97
2022-09-25T23:06:40.902Z,100312.16
2022-09-25T23:09:10.987Z,100311.28
2022-09-25T23:11:37.697Z,100300.91
2022-09-25T23:14:11.263Z,100298.03
2022-09-25T23:16:37.734Z,100293.84
2022-09-25T23:19:04.423Z,100291.34
2022-09-25T23:21:31.700Z,100294.84
2022-09-25T23:24:00.412Z,100276.03
2022-09-25T23:26:27.876Z,100264.25
2022-09-25T23:28:54.277Z,100264.06
2022-09-25T23:31:21.842Z,100256.66
2022-09-25T23:33:48.388Z,100258.16
2022-09-25T23:36:18.053Z,100254.25
2022-09-25T23:38:45.210Z,100250.38
2022-09-25T23:41:16.527Z,100250.19
2022-09-25T23:43:43.674Z,100241.94
2022-09-25T23:46:10.720Z,100229.13
2022-09-25T23:48:37.219Z,100230.78
2022-09-25T23:51:03.638Z,100229.59
2022-09-25T23:53:30.120Z,100221.34
2022-09-25T23:55:56.859Z,100220.97
2022-09-25T23:58:23.260Z,100211.69
